Amelia, Nebraska
Current Conditions -  °F | °C
As of 6:55 AM on Saturday 20 Dec 2014 (Local Time) from KBVN Reporting Station
Moderate Fog Moderate Fog  
Wind Chill: -1°   Ceiling: 100
Heat Index: -1°   Visibility: 0.5mi
Dew Point: -2°   Wind: 3mph
Humidity: 94%   Direction: 180°S
Pressure: 30.05"   Gusts: NA
Location:  42.24°N, 98.91°W
Report Text: KBVN 201255Z AUTO 18003KT 1/2SM FZFG OVC001 M01/M02 A3005 RMK AO2 T10071016
Loading
Personal Weather Stations






























Interactive Weather Map New forecast layout! Learn more

10-Day Weather Forecast

Advertisements
Track Severe Weather on mobile